sensor_id;sensor_type;location;lat;lon;timestamp;P1;durP1;ratioP1;P2;durP2;ratioP2
57730;SDS011;43570;47.476;19.040;2022-12-08T00:00:40;29.63;;;24.00;;
57730;SDS011;43570;47.476;19.040;2022-12-08T00:03:06;26.77;;;23.80;;
57730;SDS011;43570;47.476;19.040;2022-12-08T00:05:31;27.45;;;23.75;;
57730;SDS011;43570;47.476;19.040;2022-12-08T00:08:15;29.60;;;23.80;;
57730;SDS011;43570;47.476;19.040;2022-12-08T00:10:59;27.60;;;23.20;;
57730;SDS011;43570;47.476;19.040;2022-12-08T00:13:25;27.13;;;23.48;;
57730;SDS011;43570;47.476;19.040;2022-12-08T00:15:50;32.13;;;24.30;;
57730;SDS011;43570;47.476;19.040;2022-12-08T00:18:15;29.37;;;23.48;;
57730;SDS011;43570;47.476;19.040;2022-12-08T00:20:41;31.52;;;24.87;;
57730;SDS011;43570;47.476;19.040;2022-12-08T00:23:06;29.05;;;24.10;;
57730;SDS011;43570;47.476;19.040;2022-12-08T00:25:34;30.85;;;24.20;;
57730;SDS011;43570;47.476;19.040;2022-12-08T00:28:00;29.70;;;23.87;;
57730;SDS011;43570;47.476;19.040;2022-12-08T00:30:25;27.48;;;22.87;;
57730;SDS011;43570;47.476;19.040;2022-12-08T00:32:51;27.62;;;23.05;;
57730;SDS011;43570;47.476;19.040;2022-12-08T00:35:16;29.95;;;24.17;;
57730;SDS011;43570;47.476;19.040;2022-12-08T00:37:41;30.60;;;24.23;;
57730;SDS011;43570;47.476;19.040;2022-12-08T00:40:07;29.23;;;23.80;;
57730;SDS011;43570;47.476;19.040;2022-12-08T00:42:33;30.20;;;24.67;;
57730;SDS011;43570;47.476;19.040;2022-12-08T00:44:58;29.10;;;24.75;;
57730;SDS011;43570;47.476;19.040;2022-12-08T00:47:23;30.77;;;25.35;;
57730;SDS011;43570;47.476;19.040;2022-12-08T00:49:49;30.12;;;25.17;;
57730;SDS011;43570;47.476;19.040;2022-12-08T00:52:14;29.85;;;24.95;;
57730;SDS011;43570;47.476;19.040;2022-12-08T00:54:39;34.17;;;27.42;;
57730;SDS011;43570;47.476;19.040;2022-12-08T00:57:05;30.90;;;25.45;;
57730;SDS011;43570;47.476;19.040;2022-12-08T00:59:30;30.67;;;26.25;;
57730;SDS011;43570;47.476;19.040;2022-12-08T01:01:55;29.58;;;24.85;;
57730;SDS011;43570;47.476;19.040;2022-12-08T01:04:21;32.13;;;27.33;;
57730;SDS011;43570;47.476;19.040;2022-12-08T01:06:46;32.08;;;26.12;;
57730;SDS011;43570;47.476;19.040;2022-12-08T01:09:13;32.35;;;27.83;;
57730;SDS011;43570;47.476;19.040;2022-12-08T01:11:39;32.78;;;25.58;;
57730;SDS011;43570;47.476;19.040;2022-12-08T01:14:04;33.42;;;26.75;;
57730;SDS011;43570;47.476;19.040;2022-12-08T01:16:32;31.67;;;26.35;;
57730;SDS011;43570;47.476;19.040;2022-12-08T01:18:59;34.03;;;25.90;;
57730;SDS011;43570;47.476;19.040;2022-12-08T01:21:25;32.70;;;26.75;;
57730;SDS011;43570;47.476;19.040;2022-12-08T01:23:50;33.15;;;26.45;;
57730;SDS011;43570;47.476;19.040;2022-12-08T01:26:16;30.20;;;25.15;;
57730;SDS011;43570;47.476;19.040;2022-12-08T01:28:43;32.03;;;26.23;;
57730;SDS011;43570;47.476;19.040;2022-12-08T01:31:13;33.30;;;26.30;;
57730;SDS011;43570;47.476;19.040;2022-12-08T01:33:41;34.92;;;27.02;;
57730;SDS011;43570;47.476;19.040;2022-12-08T01:36:06;33.42;;;26.58;;
57730;SDS011;43570;47.476;19.040;2022-12-08T01:38:32;32.58;;;26.90;;
57730;SDS011;43570;47.476;19.040;2022-12-08T01:40:58;39.72;;;30.85;;
57730;SDS011;43570;47.476;19.040;2022-12-08T01:43:23;36.35;;;30.58;;
57730;SDS011;43570;47.476;19.040;2022-12-08T01:45:48;36.33;;;29.23;;
57730;SDS011;43570;47.476;19.040;2022-12-08T01:48:17;35.13;;;28.73;;
57730;SDS011;43570;47.476;19.040;2022-12-08T01:50:50;32.22;;;28.73;;
57730;SDS011;43570;47.476;19.040;2022-12-08T01:53:20;34.50;;;28.38;;
57730;SDS011;43570;47.476;19.040;2022-12-08T01:58:36;33.45;;;27.98;;
57730;SDS011;43570;47.476;19.040;2022-12-08T02:01:06;34.63;;;27.02;;
57730;SDS011;43570;47.476;19.040;2022-12-08T02:03:37;34.33;;;27.52;;
57730;SDS011;43570;47.476;19.040;2022-12-08T02:06:05;33.38;;;27.20;;
57730;SDS011;43570;47.476;19.040;2022-12-08T02:08:30;34.45;;;27.37;;
57730;SDS011;43570;47.476;19.040;2022-12-08T02:10:56;31.65;;;25.08;;
57730;SDS011;43570;47.476;19.040;2022-12-08T02:13:22;29.05;;;25.33;;
57730;SDS011;43570;47.476;19.040;2022-12-08T02:15:52;33.08;;;25.65;;
57730;SDS011;43570;47.476;19.040;2022-12-08T02:18:59;30.80;;;26.12;;
57730;SDS011;43570;47.476;19.040;2022-12-08T02:21:48;31.67;;;26.25;;
57730;SDS011;43570;47.476;19.040;2022-12-08T02:37:28;31.70;;;26.08;;
57730;SDS011;43570;47.476;19.040;2022-12-08T02:42:32;33.53;;;25.92;;
57730;SDS011;43570;47.476;19.040;2022-12-08T02:47:59;32.65;;;27.37;;
57730;SDS011;43570;47.476;19.040;2022-12-08T02:50:24;33.05;;;26.83;;
57730;SDS011;43570;47.476;19.040;2022-12-08T02:52:51;30.88;;;25.75;;
57730;SDS011;43570;47.476;19.040;2022-12-08T03:12:37;30.80;;;26.23;;
57730;SDS011;43570;47.476;19.040;2022-12-08T03:15:07;33.00;;;25.75;;
57730;SDS011;43570;47.476;19.040;2022-12-08T03:17:34;33.63;;;26.70;;
57730;SDS011;43570;47.476;19.040;2022-12-08T03:20:02;30.83;;;25.45;;
57730;SDS011;43570;47.476;19.040;2022-12-08T03:22:29;30.92;;;25.65;;
57730;SDS011;43570;47.476;19.040;2022-12-08T03:24:55;31.50;;;25.48;;
57730;SDS011;43570;47.476;19.040;2022-12-08T03:27:25;34.17;;;25.92;;
57730;SDS011;43570;47.476;19.040;2022-12-08T03:29:53;30.62;;;25.23;;
57730;SDS011;43570;47.476;19.040;2022-12-08T03:32:21;28.80;;;23.48;;
57730;SDS011;43570;47.476;19.040;2022-12-08T03:34:51;34.78;;;24.20;;
57730;SDS011;43570;47.476;19.040;2022-12-08T03:37:18;28.10;;;23.73;;
57730;SDS011;43570;47.476;19.040;2022-12-08T03:39:44;29.23;;;23.60;;
57730;SDS011;43570;47.476;19.040;2022-12-08T03:42:09;29.50;;;22.87;;
57730;SDS011;43570;47.476;19.040;2022-12-08T03:44:35;29.42;;;22.87;;
57730;SDS011;43570;47.476;19.040;2022-12-08T03:47:00;28.50;;;22.67;;
57730;SDS011;43570;47.476;19.040;2022-12-08T03:49:26;29.40;;;22.13;;
57730;SDS011;43570;47.476;19.040;2022-12-08T03:51:51;28.85;;;22.77;;
57730;SDS011;43570;47.476;19.040;2022-12-08T03:54:16;29.83;;;23.15;;
57730;SDS011;43570;47.476;19.040;2022-12-08T03:56:42;26.48;;;21.98;;
57730;SDS011;43570;47.476;19.040;2022-12-08T03:59:07;30.62;;;22.67;;
57730;SDS011;43570;47.476;19.040;2022-12-08T04:01:34;29.42;;;23.70;;
57730;SDS011;43570;47.476;19.040;2022-12-08T04:03:59;29.98;;;23.70;;
57730;SDS011;43570;47.476;19.040;2022-12-08T04:06:24;31.05;;;24.15;;
57730;SDS011;43570;47.476;19.040;2022-12-08T04:08:50;29.33;;;22.85;;
57730;SDS011;43570;47.476;19.040;2022-12-08T04:11:16;27.92;;;22.48;;
57730;SDS011;43570;47.476;19.040;2022-12-08T04:13:42;29.85;;;24.52;;
57730;SDS011;43570;47.476;19.040;2022-12-08T04:16:08;29.45;;;25.17;;
57730;SDS011;43570;47.476;19.040;2022-12-08T04:18:37;30.02;;;25.98;;
57730;SDS011;43570;47.476;19.040;2022-12-08T04:21:03;30.65;;;24.30;;
57730;SDS011;43570;47.476;19.040;2022-12-08T04:23:28;29.40;;;24.55;;
57730;SDS011;43570;47.476;19.040;2022-12-08T04:25:53;31.05;;;25.83;;
57730;SDS011;43570;47.476;19.040;2022-12-08T04:28:19;28.87;;;24.10;;
57730;SDS011;43570;47.476;19.040;2022-12-08T04:30:44;29.55;;;23.85;;
57730;SDS011;43570;47.476;19.040;2022-12-08T04:33:12;30.23;;;24.40;;
57730;SDS011;43570;47.476;19.040;2022-12-08T04:35:37;28.12;;;23.75;;
57730;SDS011;43570;47.476;19.040;2022-12-08T04:38:02;30.85;;;23.98;;
57730;SDS011;43570;47.476;19.040;2022-12-08T04:40:28;29.37;;;24.17;;
57730;SDS011;43570;47.476;19.040;2022-12-08T04:42:53;30.70;;;24.05;;
57730;SDS011;43570;47.476;19.040;2022-12-08T04:45:19;30.60;;;24.37;;
57730;SDS011;43570;47.476;19.040;2022-12-08T04:47:44;31.85;;;25.52;;
57730;SDS011;43570;47.476;19.040;2022-12-08T04:50:09;34.55;;;25.88;;
57730;SDS011;43570;47.476;19.040;2022-12-08T04:52:35;31.35;;;24.92;;
57730;SDS011;43570;47.476;19.040;2022-12-08T04:55:01;30.00;;;23.42;;
57730;SDS011;43570;47.476;19.040;2022-12-08T04:57:26;31.23;;;23.65;;
57730;SDS011;43570;47.476;19.040;2022-12-08T04:59:52;26.77;;;22.62;;
57730;SDS011;43570;47.476;19.040;2022-12-08T05:02:17;29.80;;;24.35;;
57730;SDS011;43570;47.476;19.040;2022-12-08T05:04:43;28.75;;;24.27;;
57730;SDS011;43570;47.476;19.040;2022-12-08T05:07:08;30.80;;;25.02;;
57730;SDS011;43570;47.476;19.040;2022-12-08T05:09:33;34.25;;;25.45;;
57730;SDS011;43570;47.476;19.040;2022-12-08T05:11:59;34.78;;;27.65;;
57730;SDS011;43570;47.476;19.040;2022-12-08T05:14:24;33.72;;;26.90;;
57730;SDS011;43570;47.476;19.040;2022-12-08T05:16:49;34.20;;;27.75;;
57730;SDS011;43570;47.476;19.040;2022-12-08T05:19:15;35.78;;;27.50;;
57730;SDS011;43570;47.476;19.040;2022-12-08T05:21:41;34.13;;;28.10;;
57730;SDS011;43570;47.476;19.040;2022-12-08T05:24:06;32.10;;;27.20;;
57730;SDS011;43570;47.476;19.040;2022-12-08T05:26:32;32.70;;;26.67;;
57730;SDS011;43570;47.476;19.040;2022-12-08T05:28:57;33.70;;;25.92;;
57730;SDS011;43570;47.476;19.040;2022-12-08T05:31:22;37.33;;;27.17;;
57730;SDS011;43570;47.476;19.040;2022-12-08T05:33:48;34.90;;;27.27;;
57730;SDS011;43570;47.476;19.040;2022-12-08T05:36:15;35.33;;;26.83;;
57730;SDS011;43570;47.476;19.040;2022-12-08T05:38:41;32.00;;;26.05;;
57730;SDS011;43570;47.476;19.040;2022-12-08T05:41:07;31.65;;;25.73;;
57730;SDS011;43570;47.476;19.040;2022-12-08T05:43:33;33.75;;;25.20;;
57730;SDS011;43570;47.476;19.040;2022-12-08T05:45:59;32.35;;;25.48;;
57730;SDS011;43570;47.476;19.040;2022-12-08T05:48:24;35.17;;;27.08;;
57730;SDS011;43570;47.476;19.040;2022-12-08T05:50:50;32.25;;;26.50;;
57730;SDS011;43570;47.476;19.040;2022-12-08T05:53:17;35.78;;;27.33;;
57730;SDS011;43570;47.476;19.040;2022-12-08T05:55:43;34.17;;;27.15;;
57730;SDS011;43570;47.476;19.040;2022-12-08T05:58:13;37.28;;;28.08;;
57730;SDS011;43570;47.476;19.040;2022-12-08T06:00:40;39.97;;;29.95;;
57730;SDS011;43570;47.476;19.040;2022-12-08T06:03:06;34.38;;;27.17;;
57730;SDS011;43570;47.476;19.040;2022-12-08T06:05:32;37.15;;;27.80;;
57730;SDS011;43570;47.476;19.040;2022-12-08T06:07:57;34.80;;;26.90;;
57730;SDS011;43570;47.476;19.040;2022-12-08T06:10:23;35.28;;;27.80;;
57730;SDS011;43570;47.476;19.040;2022-12-08T06:12:48;36.95;;;28.38;;
57730;SDS011;43570;47.476;19.040;2022-12-08T06:15:14;36.35;;;28.48;;
57730;SDS011;43570;47.476;19.040;2022-12-08T06:17:39;34.60;;;28.95;;
57730;SDS011;43570;47.476;19.040;2022-12-08T06:20:05;41.88;;;31.52;;
57730;SDS011;43570;47.476;19.040;2022-12-08T06:22:30;36.95;;;29.50;;
57730;SDS011;43570;47.476;19.040;2022-12-08T06:24:56;34.58;;;27.87;;
57730;SDS011;43570;47.476;19.040;2022-12-08T06:27:21;34.58;;;28.73;;
57730;SDS011;43570;47.476;19.040;2022-12-08T06:29:47;37.05;;;29.30;;
57730;SDS011;43570;47.476;19.040;2022-12-08T06:32:12;40.75;;;31.92;;
57730;SDS011;43570;47.476;19.040;2022-12-08T06:34:37;37.13;;;30.75;;
57730;SDS011;43570;47.476;19.040;2022-12-08T06:37:03;39.25;;;30.50;;
57730;SDS011;43570;47.476;19.040;2022-12-08T06:39:28;35.17;;;29.50;;
57730;SDS011;43570;47.476;19.040;2022-12-08T06:41:53;41.47;;;31.10;;
57730;SDS011;43570;47.476;19.040;2022-12-08T06:44:37;41.20;;;32.13;;
57730;SDS011;43570;47.476;19.040;2022-12-08T06:47:03;38.58;;;31.90;;
57730;SDS011;43570;47.476;19.040;2022-12-08T06:49:29;39.10;;;32.05;;
57730;SDS011;43570;47.476;19.040;2022-12-08T06:51:54;35.42;;;30.62;;
57730;SDS011;43570;47.476;19.040;2022-12-08T06:54:19;38.78;;;32.05;;
57730;SDS011;43570;47.476;19.040;2022-12-08T06:56:45;42.03;;;34.38;;
57730;SDS011;43570;47.476;19.040;2022-12-08T06:59:10;40.53;;;32.42;;
57730;SDS011;43570;47.476;19.040;2022-12-08T07:01:35;41.45;;;33.88;;
57730;SDS011;43570;47.476;19.040;2022-12-08T07:04:01;41.95;;;32.97;;
57730;SDS011;43570;47.476;19.040;2022-12-08T07:06:26;41.20;;;34.88;;
57730;SDS011;43570;47.476;19.040;2022-12-08T07:08:52;46.58;;;35.55;;
57730;SDS011;43570;47.476;19.040;2022-12-08T07:11:17;46.28;;;35.72;;
57730;SDS011;43570;47.476;19.040;2022-12-08T07:13:43;45.33;;;36.53;;
57730;SDS011;43570;47.476;19.040;2022-12-08T07:16:08;47.55;;;37.70;;
57730;SDS011;43570;47.476;19.040;2022-12-08T07:18:35;47.03;;;37.58;;
57730;SDS011;43570;47.476;19.040;2022-12-08T07:21:19;46.88;;;37.80;;
57730;SDS011;43570;47.476;19.040;2022-12-08T07:23:45;47.33;;;37.33;;
57730;SDS011;43570;47.476;19.040;2022-12-08T07:26:11;48.42;;;38.63;;
57730;SDS011;43570;47.476;19.040;2022-12-08T07:28:37;44.70;;;37.55;;
57730;SDS011;43570;47.476;19.040;2022-12-08T07:31:04;48.92;;;38.53;;
57730;SDS011;43570;47.476;19.040;2022-12-08T07:33:30;49.38;;;38.65;;
57730;SDS011;43570;47.476;19.040;2022-12-08T07:35:57;45.83;;;38.00;;
57730;SDS011;43570;47.476;19.040;2022-12-08T07:38:23;47.83;;;38.45;;
57730;SDS011;43570;47.476;19.040;2022-12-08T07:40:49;48.35;;;38.55;;
57730;SDS011;43570;47.476;19.040;2022-12-08T07:43:15;50.45;;;39.22;;
57730;SDS011;43570;47.476;19.040;2022-12-08T07:45:40;47.85;;;37.83;;
57730;SDS011;43570;47.476;19.040;2022-12-08T07:48:06;48.40;;;37.08;;
57730;SDS011;43570;47.476;19.040;2022-12-08T07:50:31;45.25;;;37.75;;
57730;SDS011;43570;47.476;19.040;2022-12-08T07:52:57;46.33;;;37.25;;
57730;SDS011;43570;47.476;19.040;2022-12-08T07:55:22;54.47;;;44.67;;
57730;SDS011;43570;47.476;19.040;2022-12-08T07:57:49;43.38;;;35.55;;
57730;SDS011;43570;47.476;19.040;2022-12-08T08:00:15;45.70;;;36.08;;
57730;SDS011;43570;47.476;19.040;2022-12-08T08:02:40;46.47;;;34.85;;
57730;SDS011;43570;47.476;19.040;2022-12-08T08:05:06;48.38;;;35.60;;
57730;SDS011;43570;47.476;19.040;2022-12-08T08:07:32;42.50;;;35.42;;
57730;SDS011;43570;47.476;19.040;2022-12-08T08:09:57;42.28;;;35.13;;
57730;SDS011;43570;47.476;19.040;2022-12-08T08:12:23;44.17;;;35.30;;
57730;SDS011;43570;47.476;19.040;2022-12-08T08:14:48;40.58;;;33.50;;
57730;SDS011;43570;47.476;19.040;2022-12-08T08:17:13;40.25;;;32.83;;
57730;SDS011;43570;47.476;19.040;2022-12-08T08:19:39;41.75;;;34.78;;
57730;SDS011;43570;47.476;19.040;2022-12-08T08:22:04;43.97;;;33.88;;
57730;SDS011;43570;47.476;19.040;2022-12-08T08:24:29;42.58;;;32.05;;
57730;SDS011;43570;47.476;19.040;2022-12-08T08:26:55;43.70;;;33.33;;
57730;SDS011;43570;47.476;19.040;2022-12-08T08:29:20;40.92;;;31.35;;
57730;SDS011;43570;47.476;19.040;2022-12-08T08:31:46;45.15;;;32.40;;
57730;SDS011;43570;47.476;19.040;2022-12-08T08:34:11;37.95;;;33.05;;
57730;SDS011;43570;47.476;19.040;2022-12-08T08:36:37;41.47;;;33.38;;
57730;SDS011;43570;47.476;19.040;2022-12-08T08:39:03;36.85;;;31.30;;
57730;SDS011;43570;47.476;19.040;2022-12-08T08:41:29;36.35;;;30.50;;
57730;SDS011;43570;47.476;19.040;2022-12-08T08:43:54;40.55;;;29.95;;
57730;SDS011;43570;47.476;19.040;2022-12-08T08:46:19;37.30;;;31.48;;
57730;SDS011;43570;47.476;19.040;2022-12-08T08:48:45;38.97;;;30.42;;
57730;SDS011;43570;47.476;19.040;2022-12-08T08:51:11;45.45;;;31.92;;
57730;SDS011;43570;47.476;19.040;2022-12-08T08:53:37;39.70;;;30.05;;
57730;SDS011;43570;47.476;19.040;2022-12-08T08:56:03;34.70;;;30.17;;
57730;SDS011;43570;47.476;19.040;2022-12-08T08:58:35;43.67;;;29.73;;
57730;SDS011;43570;47.476;19.040;2022-12-08T09:01:00;36.35;;;28.67;;
57730;SDS011;43570;47.476;19.040;2022-12-08T09:03:26;37.67;;;28.40;;
57730;SDS011;43570;47.476;19.040;2022-12-08T09:05:51;40.78;;;31.40;;
57730;SDS011;43570;47.476;19.040;2022-12-08T09:08:16;35.08;;;30.20;;
57730;SDS011;43570;47.476;19.040;2022-12-08T09:10:42;41.90;;;30.40;;
57730;SDS011;43570;47.476;19.040;2022-12-08T09:13:08;39.22;;;30.52;;
57730;SDS011;43570;47.476;19.040;2022-12-08T09:15:33;39.45;;;29.67;;
57730;SDS011;43570;47.476;19.040;2022-12-08T09:17:58;38.03;;;30.42;;
57730;SDS011;43570;47.476;19.040;2022-12-08T09:20:24;41.47;;;31.33;;
57730;SDS011;43570;47.476;19.040;2022-12-08T09:22:49;35.10;;;28.23;;
57730;SDS011;43570;47.476;19.040;2022-12-08T09:25:15;43.42;;;30.20;;
57730;SDS011;43570;47.476;19.040;2022-12-08T09:27:40;37.67;;;29.85;;
57730;SDS011;43570;47.476;19.040;2022-12-08T09:30:06;38.15;;;29.45;;
57730;SDS011;43570;47.476;19.040;2022-12-08T09:32:32;41.97;;;30.85;;
57730;SDS011;43570;47.476;19.040;2022-12-08T09:34:58;36.53;;;30.73;;
57730;SDS011;43570;47.476;19.040;2022-12-08T09:37:23;36.88;;;27.95;;
57730;SDS011;43570;47.476;19.040;2022-12-08T09:39:48;35.03;;;28.25;;
57730;SDS011;43570;47.476;19.040;2022-12-08T09:42:14;33.00;;;28.48;;
57730;SDS011;43570;47.476;19.040;2022-12-08T09:44:55;34.00;;;28.12;;
57730;SDS011;43570;47.476;19.040;2022-12-08T09:47:28;35.75;;;29.05;;
57730;SDS011;43570;47.476;19.040;2022-12-08T09:50:06;36.20;;;29.30;;
57730;SDS011;43570;47.476;19.040;2022-12-08T09:52:42;36.60;;;28.85;;
57730;SDS011;43570;47.476;19.040;2022-12-08T09:55:18;40.03;;;31.27;;
57730;SDS011;43570;47.476;19.040;2022-12-08T09:57:48;35.90;;;30.12;;
57730;SDS011;43570;47.476;19.040;2022-12-08T10:00:19;38.78;;;29.20;;
57730;SDS011;43570;47.476;19.040;2022-12-08T10:02:45;33.38;;;28.02;;
57730;SDS011;43570;47.476;19.040;2022-12-08T10:05:11;34.25;;;27.75;;
57730;SDS011;43570;47.476;19.040;2022-12-08T10:07:41;33.72;;;26.90;;
57730;SDS011;43570;47.476;19.040;2022-12-08T10:15:38;31.42;;;26.30;;
57730;SDS011;43570;47.476;19.040;2022-12-08T10:18:28;32.60;;;26.15;;
57730;SDS011;43570;47.476;19.040;2022-12-08T10:20:56;37.08;;;26.42;;
57730;SDS011;43570;47.476;19.040;2022-12-08T10:23:35;33.40;;;25.52;;
57730;SDS011;43570;47.476;19.040;2022-12-08T10:28:30;28.60;;;22.87;;
57730;SDS011;43570;47.476;19.040;2022-12-08T10:30:57;27.42;;;20.58;;
57730;SDS011;43570;47.476;19.040;2022-12-08T10:33:23;27.02;;;20.33;;
57730;SDS011;43570;47.476;19.040;2022-12-08T10:35:49;20.70;;;17.60;;
57730;SDS011;43570;47.476;19.040;2022-12-08T10:38:22;23.55;;;18.20;;
57730;SDS011;43570;47.476;19.040;2022-12-08T10:43:43;24.33;;;17.62;;
57730;SDS011;43570;47.476;19.040;2022-12-08T10:46:12;24.58;;;19.00;;
57730;SDS011;43570;47.476;19.040;2022-12-08T10:48:46;23.02;;;18.08;;
57730;SDS011;43570;47.476;19.040;2022-12-08T10:54:04;22.67;;;18.37;;
57730;SDS011;43570;47.476;19.040;2022-12-08T10:56:33;21.70;;;18.10;;
57730;SDS011;43570;47.476;19.040;2022-12-08T10:59:12;20.30;;;17.58;;
57730;SDS011;43570;47.476;19.040;2022-12-08T11:01:41;25.23;;;19.45;;
57730;SDS011;43570;47.476;19.040;2022-12-08T11:04:13;27.58;;;20.08;;
57730;SDS011;43570;47.476;19.040;2022-12-08T11:06:43;25.92;;;20.70;;
57730;SDS011;43570;47.476;19.040;2022-12-08T11:11:54;26.60;;;20.40;;
57730;SDS011;43570;47.476;19.040;2022-12-08T11:14:26;31.17;;;21.95;;
57730;SDS011;43570;47.476;19.040;2022-12-08T11:19:40;25.52;;;20.42;;
57730;SDS011;43570;47.476;19.040;2022-12-08T11:22:24;25.23;;;19.83;;
57730;SDS011;43570;47.476;19.040;2022-12-08T11:27:32;24.12;;;19.25;;
57730;SDS011;43570;47.476;19.040;2022-12-08T11:30:00;23.33;;;18.77;;
57730;SDS011;43570;47.476;19.040;2022-12-08T11:32:27;29.10;;;20.95;;
57730;SDS011;43570;47.476;19.040;2022-12-08T11:35:00;23.23;;;19.42;;
57730;SDS011;43570;47.476;19.040;2022-12-08T11:39:58;23.08;;;18.67;;
57730;SDS011;43570;47.476;19.040;2022-12-08T11:42:31;23.38;;;18.92;;
57730;SDS011;43570;47.476;19.040;2022-12-08T11:45:02;23.25;;;19.95;;
57730;SDS011;43570;47.476;19.040;2022-12-08T11:47:33;22.05;;;18.23;;
57730;SDS011;43570;47.476;19.040;2022-12-08T11:50:30;22.25;;;18.23;;
57730;SDS011;43570;47.476;19.040;2022-12-08T11:53:03;28.95;;;19.52;;
57730;SDS011;43570;47.476;19.040;2022-12-08T11:58:13;27.67;;;20.62;;
57730;SDS011;43570;47.476;19.040;2022-12-08T12:00:42;23.58;;;19.15;;
57730;SDS011;43570;47.476;19.040;2022-12-08T12:03:24;26.62;;;19.62;;
57730;SDS011;43570;47.476;19.040;2022-12-08T12:17:36;22.42;;;18.05;;
57730;SDS011;43570;47.476;19.040;2022-12-08T12:20:13;24.83;;;18.33;;
57730;SDS011;43570;47.476;19.040;2022-12-08T12:22:51;21.55;;;17.98;;
57730;SDS011;43570;47.476;19.040;2022-12-08T12:25:22;23.10;;;18.15;;
57730;SDS011;43570;47.476;19.040;2022-12-08T12:27:48;22.27;;;18.65;;
57730;SDS011;43570;47.476;19.040;2022-12-08T12:30:19;23.98;;;19.12;;
57730;SDS011;43570;47.476;19.040;2022-12-08T12:32:51;24.10;;;18.85;;
57730;SDS011;43570;47.476;19.040;2022-12-08T12:35:21;22.40;;;18.17;;
57730;SDS011;43570;47.476;19.040;2022-12-08T12:41:09;24.63;;;19.85;;
57730;SDS011;43570;47.476;19.040;2022-12-08T12:43:37;22.20;;;19.20;;
57730;SDS011;43570;47.476;19.040;2022-12-08T12:48:46;22.13;;;18.45;;
57730;SDS011;43570;47.476;19.040;2022-12-08T12:51:54;23.85;;;19.55;;
57730;SDS011;43570;47.476;19.040;2022-12-08T12:54:22;24.12;;;19.12;;
57730;SDS011;43570;47.476;19.040;2022-12-08T13:02:10;23.38;;;19.80;;
57730;SDS011;43570;47.476;19.040;2022-12-08T13:04:51;26.27;;;20.17;;
57730;SDS011;43570;47.476;19.040;2022-12-08T13:07:22;25.48;;;20.12;;
57730;SDS011;43570;47.476;19.040;2022-12-08T13:10:39;24.10;;;18.10;;
57730;SDS011;43570;47.476;19.040;2022-12-08T13:13:17;23.77;;;18.70;;
57730;SDS011;43570;47.476;19.040;2022-12-08T13:15:52;22.87;;;18.27;;
57730;SDS011;43570;47.476;19.040;2022-12-08T13:18:23;22.83;;;18.58;;
57730;SDS011;43570;47.476;19.040;2022-12-08T13:20:50;22.30;;;17.80;;
57730;SDS011;43570;47.476;19.040;2022-12-08T13:34:15;22.73;;;16.70;;
57730;SDS011;43570;47.476;19.040;2022-12-08T13:39:45;17.95;;;15.45;;
57730;SDS011;43570;47.476;19.040;2022-12-08T13:42:19;24.40;;;18.87;;
57730;SDS011;43570;47.476;19.040;2022-12-08T13:52:35;23.67;;;18.83;;
57730;SDS011;43570;47.476;19.040;2022-12-08T13:55:03;23.60;;;18.77;;
57730;SDS011;43570;47.476;19.040;2022-12-08T13:57:30;23.83;;;19.02;;
57730;SDS011;43570;47.476;19.040;2022-12-08T14:00:03;23.15;;;18.10;;
57730;SDS011;43570;47.476;19.040;2022-12-08T14:02:34;25.15;;;17.08;;
57730;SDS011;43570;47.476;19.040;2022-12-08T14:05:01;23.90;;;18.02;;
57730;SDS011;43570;47.476;19.040;2022-12-08T14:07:27;21.33;;;17.77;;
57730;SDS011;43570;47.476;19.040;2022-12-08T14:09:52;22.48;;;17.12;;
57730;SDS011;43570;47.476;19.040;2022-12-08T14:12:22;26.77;;;20.20;;
57730;SDS011;43570;47.476;19.040;2022-12-08T14:14:51;25.15;;;19.10;;
57730;SDS011;43570;47.476;19.040;2022-12-08T14:17:19;31.17;;;22.92;;
57730;SDS011;43570;47.476;19.040;2022-12-08T14:22:17;32.97;;;25.23;;
57730;SDS011;43570;47.476;19.040;2022-12-08T14:24:43;31.58;;;23.95;;
57730;SDS011;43570;47.476;19.040;2022-12-08T14:27:11;29.17;;;23.08;;
57730;SDS011;43570;47.476;19.040;2022-12-08T14:32:20;23.55;;;20.12;;
57730;SDS011;43570;47.476;19.040;2022-12-08T14:37:33;24.45;;;19.15;;
57730;SDS011;43570;47.476;19.040;2022-12-08T14:40:01;25.58;;;19.42;;
57730;SDS011;43570;47.476;19.040;2022-12-08T14:42:30;24.42;;;20.77;;
57730;SDS011;43570;47.476;19.040;2022-12-08T14:45:08;23.95;;;19.55;;
57730;SDS011;43570;47.476;19.040;2022-12-08T14:47:35;24.67;;;19.23;;
57730;SDS011;43570;47.476;19.040;2022-12-08T14:50:01;21.55;;;17.80;;
57730;SDS011;43570;47.476;19.040;2022-12-08T14:52:28;25.02;;;19.23;;
57730;SDS011;43570;47.476;19.040;2022-12-08T14:54:54;28.27;;;19.77;;
57730;SDS011;43570;47.476;19.040;2022-12-08T14:57:20;22.55;;;18.80;;
57730;SDS011;43570;47.476;19.040;2022-12-08T14:59:46;21.52;;;18.55;;
57730;SDS011;43570;47.476;19.040;2022-12-08T15:04:44;23.20;;;18.87;;
57730;SDS011;43570;47.476;19.040;2022-12-08T15:07:15;24.70;;;20.77;;
57730;SDS011;43570;47.476;19.040;2022-12-08T15:09:43;24.37;;;20.65;;
57730;SDS011;43570;47.476;19.040;2022-12-08T15:14:42;24.40;;;20.02;;
57730;SDS011;43570;47.476;19.040;2022-12-08T15:17:42;26.12;;;19.80;;
57730;SDS011;43570;47.476;19.040;2022-12-08T15:22:53;30.85;;;24.10;;
57730;SDS011;43570;47.476;19.040;2022-12-08T15:25:19;30.65;;;22.95;;
57730;SDS011;43570;47.476;19.040;2022-12-08T15:27:45;29.08;;;21.90;;
57730;SDS011;43570;47.476;19.040;2022-12-08T15:30:14;28.02;;;21.70;;
57730;SDS011;43570;47.476;19.040;2022-12-08T15:32:40;28.98;;;24.37;;
57730;SDS011;43570;47.476;19.040;2022-12-08T15:35:06;28.30;;;22.08;;
57730;SDS011;43570;47.476;19.040;2022-12-08T15:37:32;26.75;;;22.35;;
57730;SDS011;43570;47.476;19.040;2022-12-08T15:39:57;25.30;;;21.10;;
57730;SDS011;43570;47.476;19.040;2022-12-08T15:42:23;28.30;;;22.35;;
57730;SDS011;43570;47.476;19.040;2022-12-08T15:44:48;27.98;;;22.08;;
57730;SDS011;43570;47.476;19.040;2022-12-08T15:47:17;27.70;;;22.08;;
57730;SDS011;43570;47.476;19.040;2022-12-08T15:49:44;26.92;;;21.67;;
57730;SDS011;43570;47.476;19.040;2022-12-08T15:52:14;26.58;;;22.42;;
57730;SDS011;43570;47.476;19.040;2022-12-08T15:54:41;27.90;;;22.75;;
57730;SDS011;43570;47.476;19.040;2022-12-08T15:57:08;25.85;;;21.37;;
57730;SDS011;43570;47.476;19.040;2022-12-08T15:59:40;31.12;;;21.65;;
57730;SDS011;43570;47.476;19.040;2022-12-08T16:02:07;26.27;;;21.87;;
57730;SDS011;43570;47.476;19.040;2022-12-08T16:04:35;26.77;;;21.98;;
57730;SDS011;43570;47.476;19.040;2022-12-08T16:07:00;31.10;;;23.48;;
57730;SDS011;43570;47.476;19.040;2022-12-08T16:12:04;31.17;;;22.90;;
57730;SDS011;43570;47.476;19.040;2022-12-08T16:14:50;29.10;;;22.52;;
57730;SDS011;43570;47.476;19.040;2022-12-08T16:17:15;29.63;;;23.65;;
57730;SDS011;43570;47.476;19.040;2022-12-08T16:19:41;29.60;;;24.15;;
57730;SDS011;43570;47.476;19.040;2022-12-08T16:22:17;29.10;;;24.25;;